Time;durP1;ratioP1;P1;durP2;ratioP2;P2;SDS_P1;SDS_P2;PMS_P1;PMS_P2;Temp;Humidity;BMP_temperature;BMP_pressure;BME280_temperature;BME280_humidity;BME280_pressure;Samples;Min_cycle;Max_cycle;Signal;HPM_P1;HPM_P2
2023/01/30 00:01:42;;;;;;;18.47;13.67;;;;;;;5.18;66.12;99861.34;5054346;28;20190;-52
2023/01/30 00:04:12;;;;;;;16.43;12.63;;;;;;;5.19;65.21;99868.16;5053837;28;20264;-52
2023/01/30 00:06:39;;;;;;;18.60;15.40;;;;;;;5.29;65.58;99867.78;5052692;28;20435;-54
2023/01/30 00:09:05;;;;;;;17.97;13.20;;;;;;;5.40;64.58;99869.91;5054330;28;20198;-52
2023/01/30 00:11:33;;;;;;;17.93;13.30;;;;;;;5.38;64.58;99859.66;5053783;28;20256;-52
2023/01/30 00:14:00;;;;;;;17.37;12.53;;;;;;;5.38;63.82;99868.13;5053654;28;20254;-52
2023/01/30 00:16:28;;;;;;;18.97;12.70;;;;;;;5.38;64.73;99858.78;5053589;28;20223;-52
2023/01/30 00:18:55;;;;;;;19.07;13.77;;;;;;;5.31;64.53;99862.72;5053716;28;20190;-52
2023/01/30 00:21:22;;;;;;;19.93;13.57;;;;;;;5.26;64.88;99859.13;5054058;28;20194;-52
2023/01/30 00:23:48;;;;;;;18.40;13.80;;;;;;;5.26;64.33;99857.44;5053652;28;20537;-52
2023/01/30 00:26:15;;;;;;;18.67;12.97;;;;;;;5.31;64.58;99863.59;5052778;28;20196;-54
2023/01/30 00:28:42;;;;;;;20.37;14.27;;;;;;;5.31;64.62;99863.59;5053202;28;20204;-51
2023/01/30 00:31:09;;;;;;;21.03;13.23;;;;;;;5.33;65.14;99861.97;5052347;28;20201;-52
2023/01/30 00:33:38;;;;;;;16.93;13.40;;;;;;;5.36;63.96;99867.22;5053381;28;20242;-52
2023/01/30 00:36:06;;;;;;;19.43;13.47;;;;;;;5.28;64.51;99843.09;5053198;28;20230;-52
2023/01/30 00:38:33;;;;;;;19.33;13.83;;;;;;;5.36;64.56;99862.13;5053167;28;20557;-52
2023/01/30 00:41:00;;;;;;;20.03;14.30;;;;;;;5.38;65.58;99855.41;5053326;28;20195;-52
2023/01/30 00:49:27;;;;;;;23.93;14.10;;;;;;;5.44;64.71;99856.50;4972509;28;20205;-52
2023/01/30 00:51:54;;;;;;;20.20;13.87;;;;;;;5.47;65.08;99854.03;4972570;28;20200;-52
2023/01/30 00:54:20;;;;;;;19.53;14.60;;;;;;;5.49;64.62;99858.44;4972151;28;20268;-52
2023/01/30 00:56:47;;;;;;;20.67;15.07;;;;;;;5.48;63.91;99854.13;4972040;28;20253;-52
2023/01/30 00:59:14;;;;;;;23.07;15.20;;;;;;;5.46;64.13;99852.31;4972129;28;20211;-52
2023/01/30 01:01:41;;;;;;;21.73;14.77;;;;;;;5.40;64.75;99860.59;4972166;28;20213;-52
2023/01/30 01:04:09;;;;;;;25.93;15.83;;;;;;;5.19;65.07;99829.13;4972026;28;20207;-52
2023/01/30 01:06:37;;;;;;;22.30;15.53;;;;;;;5.28;65.27;99854.94;4972321;28;20650;-52
2023/01/30 01:09:06;;;;;;;24.30;15.83;;;;;;;5.24;65.01;99845.47;4972021;28;20200;-52
2023/01/30 01:11:33;;;;;;;21.87;15.73;;;;;;;5.31;66.08;99845.78;4971831;28;20202;-52
2023/01/30 01:14:02;;;;;;;22.63;15.30;;;;;;;5.31;65.65;99837.25;4971762;28;20252;-52
2023/01/30 01:16:30;;;;;;;23.30;15.00;;;;;;;5.27;66.31;99841.34;4967975;28;20202;-53
2023/01/30 01:18:57;;;;;;;18.87;13.93;;;;;;;5.25;66.05;99852.28;4972040;28;20190;-54
2023/01/30 01:21:24;;;;;;;22.17;14.47;;;;;;;5.20;65.29;99836.81;5046875;28;20657;-53
2023/01/30 01:23:53;;;;;;;20.13;14.30;;;;;;;5.18;65.91;99833.31;5052769;28;20197;-53
2023/01/30 01:26:21;;;;;;;21.83;14.63;;;;;;;5.22;65.74;99835.19;5052261;28;20218;-53
2023/01/30 01:28:47;;;;;;;21.13;14.00;;;;;;;5.19;65.92;99829.13;5052266;28;20191;-53
2023/01/30 01:31:16;;;;;;;19.23;13.33;;;;;;;5.23;65.65;99829.28;5052292;28;20186;-53
2023/01/30 01:33:43;;;;;;;18.47;13.17;;;;;;;5.19;65.45;99822.31;5052393;28;20587;-53
2023/01/30 01:36:10;;;;;;;23.60;13.87;;;;;;;5.18;65.44;99825.69;5052421;28;20227;-53
2023/01/30 01:38:37;;;;;;;21.50;14.13;;;;;;;5.22;65.29;99829.22;5052079;28;20728;-53
2023/01/30 01:41:05;;;;;;;18.90;14.07;;;;;;;5.19;65.61;99829.94;5045954;28;20233;-53
2023/01/30 01:43:35;;;;;;;21.55;17.40;;;;;;;5.25;65.04;99827.69;5039643;28;20490;-53
2023/01/30 01:46:07;;;;;;;22.07;14.63;;;;;;;3.87;64.54;99566.44;5032410;28;20220;-53
2023/01/30 01:48:38;;;;;;;23.67;15.60;;;;;;;5.31;64.71;99825.41;5032093;28;20277;-53
2023/01/30 01:51:11;;;;;;;25.00;14.67;;;;;;;5.26;64.68;99816.69;5037940;28;20202;-53
2023/01/30 01:53:44;;;;;;;19.90;13.43;;;;;;;5.29;64.64;99829.56;5052496;28;20184;-53
2023/01/30 01:56:14;;;;;;;22.38;16.48;;;;;;;5.33;64.12;99823.78;5051148;28;20454;-53
2023/01/30 01:58:45;;;;;;;19.47;13.80;;;;;;;5.39;63.94;99828.25;5052075;28;20189;-53
2023/01/30 02:01:12;;;;;;;21.23;13.13;;;;;;;5.40;62.54;99813.84;5051094;28;20200;-53
2023/01/30 02:03:46;;;;;;;22.10;13.60;;;;;;;5.35;63.49;99824.72;5044800;28;20213;-53
2023/01/30 02:06:15;;;;;;;22.50;13.83;;;;;;;5.40;63.06;99821.50;5049489;28;20229;-51
2023/01/30 02:08:47;;;;;;;19.87;13.50;;;;;;;5.34;62.79;99819.56;5051670;28;20194;-53
2023/01/30 02:11:26;;;;;;;23.87;13.83;;;;;;;5.32;63.40;99819.50;5051704;28;20200;-52
2023/01/30 02:13:53;;;;;;;18.77;13.13;;;;;;;5.35;63.81;99822.19;5051651;28;20198;-52
2023/01/30 02:16:20;;;;;;;17.80;13.07;;;;;;;5.37;63.49;99812.03;5052350;28;20199;-52
2023/01/30 02:18:48;;;;;;;17.30;12.37;;;;;;;5.40;62.71;99811.28;5051676;28;20188;-51
2023/01/30 02:21:54;;;;;;;18.00;12.23;;;;;;;5.31;62.71;99810.09;5051472;28;20191;-52
2023/01/30 02:24:39;;;;;;;17.80;12.53;;;;;;;5.30;62.68;99816.00;5051852;28;20190;-52
2023/01/30 02:27:28;;;;;;;19.63;13.17;;;;;;;5.19;63.02;99806.19;5052067;28;20200;-52
2023/01/30 02:30:54;;;;;;;22.07;12.77;;;;;;;5.10;62.68;99801.56;5050930;28;20252;-52
2023/01/30 02:33:33;;;;;;;19.53;11.63;;;;;;;5.08;62.60;99810.81;5051354;28;20682;-53
2023/01/30 02:36:09;;;;;;;19.43;12.47;;;;;;;5.02;62.15;99813.13;5051887;28;20224;-52
2023/01/30 02:38:43;;;;;;;18.77;13.73;;;;;;;4.96;62.61;99807.75;5051271;28;20489;-52
2023/01/30 02:41:22;;;;;;;21.20;12.90;;;;;;;5.01;63.68;99795.19;5052081;28;20206;-52
2023/01/30 02:43:59;;;;;;;18.87;12.67;;;;;;;5.04;62.82;99797.88;5052101;28;20198;-52
2023/01/30 02:46:33;;;;;;;17.73;12.30;;;;;;;4.99;62.85;99805.34;5051176;28;20701;-52
2023/01/30 02:49:09;;;;;;;19.10;12.87;;;;;;;5.06;63.32;99811.53;5051475;28;20185;-52
2023/01/30 02:51:38;;;;;;;20.38;14.07;;;;;;;5.10;63.19;99803.25;5051119;28;20431;-52
2023/01/30 02:54:06;;;;;;;18.40;13.07;;;;;;;5.12;62.58;99802.50;5053347;28;20189;-53
2023/01/30 02:56:45;;;;;;;19.23;12.20;;;;;;;5.18;62.99;99805.31;5055331;28;20224;-52
2023/01/30 02:59:16;;;;;;;22.57;14.50;;;;;;;5.16;63.36;99801.84;5055294;28;20194;-53
2023/01/30 03:02:08;;;;;;;18.97;13.03;;;;;;;5.09;62.28;99806.59;5055343;28;20196;-52
2023/01/30 03:04:52;;;;;;;20.43;13.47;;;;;;;5.06;62.75;99796.25;5055578;28;20189;-52
2023/01/30 03:07:27;;;;;;;19.40;12.63;;;;;;;5.05;62.62;99799.63;5054331;28;20654;-53
2023/01/30 03:10:01;;;;;;;21.57;13.73;;;;;;;5.01;63.72;99795.19;5045144;28;20201;-51
2023/01/30 03:12:39;;;;;;;18.53;13.10;;;;;;;5.02;62.54;99792.75;5046110;28;20241;-52
2023/01/30 03:15:10;;;;;;;21.60;13.37;;;;;;;5.03;63.12;99794.47;5035834;28;20225;-52
2023/01/30 03:17:42;;;;;;;22.23;12.77;;;;;;;4.95;62.89;99784.75;5035147;28;20209;-51
2023/01/30 03:20:12;;;;;;;20.47;13.97;;;;;;;4.99;63.20;99786.63;5034990;28;20197;-52
2023/01/30 03:22:41;;;;;;;23.70;14.37;;;;;;;5.02;63.23;99787.66;5034858;28;20191;-54
2023/01/30 03:25:09;;;;;;;21.20;13.83;;;;;;;4.89;62.60;99765.00;5034700;28;20216;-52
2023/01/30 03:27:37;;;;;;;19.47;12.93;;;;;;;4.99;62.52;99782.44;5034915;28;20186;-52
2023/01/30 03:30:05;;;;;;;20.27;13.17;;;;;;;4.93;62.97;99777.06;5034538;28;20198;-52
2023/01/30 03:32:39;;;;;;;21.60;13.53;;;;;;;4.90;62.85;99781.13;5034798;28;20196;-53
2023/01/30 03:35:06;;;;;;;19.80;13.77;;;;;;;4.88;62.82;99773.44;5034635;28;20196;-52
2023/01/30 03:37:34;;;;;;;21.10;12.83;;;;;;;4.90;62.27;99768.41;5034585;28;20698;-52
2023/01/30 03:40:01;;;;;;;19.93;12.50;;;;;;;4.90;62.20;99774.38;5034538;28;20261;-53
2023/01/30 03:42:28;;;;;;;22.10;14.47;;;;;;;4.89;61.98;99781.97;5034262;28;20656;-53
2023/01/30 03:44:55;;;;;;;22.40;12.77;;;;;;;4.90;62.15;99770.97;5034499;28;20191;-53
2023/01/30 03:47:22;;;;;;;19.30;13.40;;;;;;;4.83;62.31;99777.47;5034111;28;20718;-53
2023/01/30 03:49:48;;;;;;;21.43;14.43;;;;;;;4.82;61.76;99783.38;5034258;28;20199;-52
2023/01/30 03:52:15;;;;;;;19.57;13.10;;;;;;;4.81;62.07;99780.78;5034252;28;20193;-52
2023/01/30 03:54:43;;;;;;;23.33;13.80;;;;;;;4.84;61.98;99776.66;5035133;28;20199;-58
2023/01/30 03:57:10;;;;;;;22.13;14.20;;;;;;;4.88;62.68;99786.19;5034286;28;20191;-53
2023/01/30 03:59:37;;;;;;;22.33;13.83;;;;;;;4.84;62.35;99776.66;5034055;28;20190;-53
2023/01/30 04:02:04;;;;;;;19.93;13.83;;;;;;;4.93;61.43;99783.81;5051391;28;20270;-53
2023/01/30 04:04:30;;;;;;;18.57;12.70;;;;;;;4.94;61.23;99789.00;5053848;28;20192;-53
2023/01/30 04:06:57;;;;;;;20.47;13.77;;;;;;;4.88;61.43;99770.03;5053650;28;20644;-51
2023/01/30 04:09:24;;;;;;;20.83;13.73;;;;;;;4.92;61.44;99771.88;5053262;28;20256;-53
2023/01/30 04:11:52;;;;;;;20.47;14.73;;;;;;;4.94;61.81;99773.72;5043100;28;20668;-53
2023/01/30 04:14:19;;;;;;;21.27;13.37;;;;;;;4.90;61.08;99769.28;5047559;28;20295;-53
2023/01/30 04:16:46;;;;;;;23.77;14.30;;;;;;;4.90;61.58;99769.28;5053863;28;20243;-53
2023/01/30 04:19:13;;;;;;;20.27;13.53;;;;;;;4.89;61.59;99775.19;5053698;28;20214;-53
2023/01/30 04:21:39;;;;;;;19.07;12.33;;;;;;;4.81;61.54;99770.59;5053535;28;20247;-52
2023/01/30 04:24:07;;;;;;;21.50;13.20;;;;;;;4.86;61.71;99769.97;5053971;28;20199;-52
2023/01/30 04:26:33;;;;;;;20.77;13.53;;;;;;;4.88;61.65;99773.44;5053476;28;20222;-53
2023/01/30 04:29:02;;;;;;;19.17;13.23;;;;;;;4.89;61.06;99762.44;5053627;28;20185;-52
2023/01/30 04:31:28;;;;;;;22.87;15.40;;;;;;;4.91;60.80;99776.13;5052825;28;20431;-53
2023/01/30 04:33:55;;;;;;;20.67;14.63;;;;;;;4.94;60.81;99767.75;5053984;28;20196;-52
2023/01/30 04:36:22;;;;;;;20.93;13.63;;;;;;;4.90;60.75;99769.28;5053542;28;20236;-53
2023/01/30 04:38:48;;;;;;;25.67;13.73;;;;;;;4.89;61.22;99769.25;5053073;28;20726;-53
2023/01/30 04:41:15;;;;;;;21.90;12.60;;;;;;;4.86;60.42;99775.06;5053036;28;20606;-52
2023/01/30 04:43:42;;;;;;;20.08;14.30;;;;;;;4.73;61.29;99766.03;5053210;28;20427;-52
2023/01/30 04:46:10;;;;;;;23.03;14.27;;;;;;;4.73;61.48;99772.78;5052973;28;20230;-52
2023/01/30 04:48:38;;;;;;;17.80;12.90;;;;;;;4.78;61.09;99775.53;5053106;28;20205;-52
2023/01/30 04:51:05;;;;;;;20.27;12.50;;;;;;;4.71;61.36;99774.41;5052912;28;20671;-52
2023/01/30 04:53:32;;;;;;;21.67;13.07;;;;;;;4.56;61.46;99768.66;5053092;28;20243;-52
2023/01/30 04:55:58;;;;;;;18.83;12.47;;;;;;;4.58;61.79;99778.09;5052857;28;20209;-52
2023/01/30 04:58:25;;;;;;;20.30;13.10;;;;;;;4.53;62.32;99773.59;5052778;28;20189;-52
2023/01/30 05:00:52;;;;;;;18.00;12.83;;;;;;;4.56;62.24;99774.59;5052627;28;20221;-52
2023/01/30 05:03:20;;;;;;;18.53;12.90;;;;;;;4.61;61.86;99772.25;5052091;28;20187;-52
2023/01/30 05:05:48;;;;;;;23.53;14.30;;;;;;;4.51;62.57;99750.63;5052352;28;20218;-52
2023/01/30 05:08:16;;;;;;;17.47;12.30;;;;;;;4.58;61.28;99760.28;5052426;28;20194;-51
2023/01/30 05:10:42;;;;;;;20.17;13.07;;;;;;;4.61;61.45;99770.59;5051692;28;20196;-51
2023/01/30 05:13:09;;;;;;;20.57;12.73;;;;;;;4.54;62.01;99770.22;5052698;28;20190;-52
2023/01/30 05:15:36;;;;;;;19.93;13.60;;;;;;;4.47;61.70;99769.13;5051949;28;20186;-53
2023/01/30 05:18:03;;;;;;;21.57;13.47;;;;;;;4.63;61.46;99773.19;5051952;28;20286;-52
2023/01/30 05:20:31;;;;;;;18.73;12.33;;;;;;;4.60;60.62;99775.59;5052622;28;20194;-51
2023/01/30 05:22:58;;;;;;;22.10;13.03;;;;;;;4.60;60.60;99776.47;5052287;28;20654;-53
2023/01/30 05:25:26;;;;;;;20.77;13.33;;;;;;;4.64;60.90;99777.50;5052103;28;20217;-52
2023/01/30 05:27:52;;;;;;;22.13;14.33;;;;;;;4.61;60.70;99772.25;5048648;28;20189;-52
2023/01/30 05:30:19;;;;;;;17.97;13.43;;;;;;;4.63;60.93;99773.19;5051815;28;20550;-52
2023/01/30 05:32:46;;;;;;;19.27;14.10;;;;;;;4.66;60.27;99776.75;5051829;28;20244;-52
2023/01/30 05:35:13;;;;;;;21.43;13.07;;;;;;;4.64;60.35;99780.03;5052385;28;20259;-52
2023/01/30 05:37:41;;;;;;;20.10;13.30;;;;;;;4.61;60.23;99783.31;5047353;28;20232;-52
2023/01/30 05:40:09;;;;;;;17.13;13.00;;;;;;;4.56;60.37;99773.75;5051962;28;20193;-52
2023/01/30 05:42:36;;;;;;;18.37;12.80;;;;;;;4.53;61.02;99771.06;5052163;28;20193;-53
2023/01/30 05:45:03;;;;;;;17.87;12.50;;;;;;;4.53;60.84;99774.44;5051813;28;20190;-53
2023/01/30 05:47:30;;;;;;;20.80;14.47;;;;;;;4.55;60.48;99774.53;5048270;28;20225;-53
2023/01/30 05:49:56;;;;;;;20.47;13.53;;;;;;;4.49;61.28;99771.72;5031732;28;20202;-52
2023/01/30 05:52:23;;;;;;;20.97;13.70;;;;;;;4.54;61.63;99775.31;5031876;28;20189;-53
2023/01/30 05:54:51;;;;;;;21.47;13.23;;;;;;;4.59;60.50;99776.38;5031747;28;20194;-52
2023/01/30 05:57:18;;;;;;;19.60;14.33;;;;;;;4.52;60.51;99770.19;5041285;28;20258;-52
2023/01/30 05:59:45;;;;;;;23.40;13.50;;;;;;;4.60;60.18;99775.59;5050431;28;20254;-52
2023/01/30 06:02:11;;;;;;;19.93;13.33;;;;;;;4.58;60.90;99775.53;5048799;28;20255;-52
2023/01/30 06:04:38;;;;;;;21.13;14.17;;;;;;;4.54;60.73;99765.16;5050007;28;20568;-52
2023/01/30 06:07:05;;;;;;;20.30;13.20;;;;;;;4.49;60.20;99761.53;5051603;28;20241;-52
2023/01/30 06:09:34;;;;;;;18.80;12.57;;;;;;;4.45;59.79;99769.84;5051227;28;20197;-53
2023/01/30 06:12:02;;;;;;;20.20;13.17;;;;;;;4.45;60.94;99780.88;5051421;28;20197;-53
2023/01/30 06:14:29;;;;;;;22.07;13.13;;;;;;;4.42;60.87;99775.63;5051662;28;20193;-53
2023/01/30 06:16:56;;;;;;;21.33;12.30;;;;;;;4.41;60.28;99770.50;5051547;28;20196;-53
2023/01/30 06:19:23;;;;;;;24.10;12.33;;;;;;;4.51;61.09;99786.22;5051170;28;20188;-53
2023/01/30 06:21:50;;;;;;;23.70;13.57;;;;;;;4.50;61.19;99787.06;5050989;28;20189;-52
2023/01/30 06:24:16;;;;;;;22.53;13.40;;;;;;;4.47;61.51;99786.03;5051133;28;20189;-51
2023/01/30 06:26:43;;;;;;;19.67;13.87;;;;;;;4.48;61.60;99786.09;5050962;28;20234;-53
2023/01/30 06:29:11;;;;;;;19.40;12.33;;;;;;;4.55;60.83;99789.78;5053280;28;20191;-53
2023/01/30 06:31:38;;;;;;;22.47;13.83;;;;;;;4.58;61.13;99792.47;5055220;28;20248;-53
2023/01/30 06:34:05;;;;;;;20.60;13.23;;;;;;;4.58;60.83;99789.94;5053964;28;20197;-52
2023/01/30 06:36:32;;;;;;;23.20;13.67;;;;;;;4.62;61.11;99792.66;5037228;28;20238;-53
2023/01/30 06:38:59;;;;;;;18.70;13.60;;;;;;;4.55;60.91;99797.44;5035552;28;20194;-53
2023/01/30 06:41:25;;;;;;;21.90;13.20;;;;;;;4.56;60.55;99791.56;5055211;28;20281;-53
2023/01/30 06:43:52;;;;;;;19.57;13.07;;;;;;;3.85;60.22;99677.28;5055114;28;20212;-53
2023/01/30 06:46:20;;;;;;;20.10;13.37;;;;;;;4.62;60.71;99792.66;5055051;28;20766;-52
2023/01/30 06:48:48;;;;;;;21.97;12.90;;;;;;;4.63;60.48;99783.38;5054980;28;20247;-52
2023/01/30 06:51:14;;;;;;;22.27;13.87;;;;;;;4.71;60.82;99799.84;5055386;28;20198;-52
2023/01/30 06:53:50;;;;;;;24.57;13.73;;;;;;;4.67;60.53;99795.41;5055061;28;20281;-53
2023/01/30 06:56:17;;;;;;;19.87;13.13;;;;;;;4.63;60.17;99794.44;5055156;28;20275;-52
2023/01/30 06:58:44;;;;;;;22.73;13.63;;;;;;;4.50;60.45;99781.09;5055067;28;20192;-52
2023/01/30 07:01:11;;;;;;;18.47;11.83;;;;;;;4.63;59.96;99796.09;5054447;28;20655;-53
2023/01/30 07:03:39;;;;;;;22.47;12.43;;;;;;;4.69;60.93;99799.78;5053789;28;20196;-52
2023/01/30 07:06:06;;;;;;;19.53;11.80;;;;;;;4.70;60.51;99793.00;5046094;28;20200;-53
2023/01/30 07:08:33;;;;;;;17.47;12.17;;;;;;;3.93;60.15;99677.63;5048096;28;20196;-51
2023/01/30 07:10:59;;;;;;;18.10;12.17;;;;;;;4.66;60.61;99802.19;5054212;28;20210;-52
2023/01/30 07:13:26;;;;;;;16.90;11.73;;;;;;;4.68;60.44;99805.66;5054818;28;20193;-51
2023/01/30 07:15:53;;;;;;;18.37;12.67;;;;;;;4.70;60.79;99803.19;5054194;28;20326;-51
2023/01/30 07:18:20;;;;;;;17.50;11.60;;;;;;;4.72;60.86;99804.13;5054492;28;20545;-53
2023/01/30 07:20:49;;;;;;;17.07;12.50;;;;;;;4.74;60.57;99798.31;5054603;28;20184;-52
2023/01/30 07:23:16;;;;;;;19.67;12.83;;;;;;;4.84;60.28;99798.69;5054527;28;20200;-52
2023/01/30 07:25:45;;;;;;;20.80;12.37;;;;;;;4.87;59.84;99807.34;5055147;28;20186;-52
2023/01/30 07:28:12;;;;;;;17.30;11.47;;;;;;;4.90;59.43;99796.41;5053998;28;20692;-52
2023/01/30 07:30:40;;;;;;;21.80;12.47;;;;;;;4.89;59.78;99804.88;5051732;28;20672;-52
2023/01/30 07:33:06;;;;;;;21.43;12.97;;;;;;;4.86;60.54;99795.44;5054155;28;20193;-50
2023/01/30 07:35:35;;;;;;;20.77;14.93;;;;;;;4.87;60.10;99799.69;5053217;28;20432;-50
2023/01/30 07:38:04;;;;;;;25.03;14.50;;;;;;;4.75;59.88;99759.31;5054001;28;20195;-52
2023/01/30 07:40:31;;;;;;;21.93;12.43;;;;;;;4.80;59.89;99784.09;5053658;28;20287;-52
2023/01/30 07:42:59;;;;;;;18.20;12.93;;;;;;;4.90;60.10;99796.41;5052297;28;20207;-53
2023/01/30 07:45:27;;;;;;;20.27;12.57;;;;;;;4.93;59.28;99794.00;5051501;28;20271;-53
2023/01/30 07:47:54;;;;;;;22.77;12.83;;;;;;;4.98;59.69;99800.16;5050039;28;20217;-53
2023/01/30 07:50:21;;;;;;;21.47;13.17;;;;;;;5.02;60.07;99792.75;5053157;28;20204;-53
2023/01/30 07:52:48;;;;;;;20.10;13.10;;;;;;;5.08;59.35;99795.53;5050918;28;20292;-53
2023/01/30 07:55:16;;;;;;;18.13;12.40;;;;;;;5.13;60.03;99794.06;5053205;28;20195;-53
2023/01/30 07:57:43;;;;;;;23.80;14.07;;;;;;;5.12;59.56;99782.13;5053890;28;20192;-52
2023/01/30 08:00:11;;;;;;;20.80;12.90;;;;;;;5.14;58.98;99780.50;5053677;28;20192;-53
2023/01/30 08:02:38;;;;;;;23.33;12.87;;;;;;;5.18;58.85;99779.84;5053683;28;20198;-53
2023/01/30 08:05:05;;;;;;;19.30;12.63;;;;;;;5.20;59.00;99780.78;5053619;28;20611;-52
2023/01/30 08:07:32;;;;;;;23.30;13.43;;;;;;;5.24;59.11;99785.19;5053385;28;20730;-54
2023/01/30 08:09:59;;;;;;;18.70;12.03;;;;;;;5.20;58.46;99782.44;5053537;28;20196;-53
2023/01/30 08:12:28;;;;;;;17.77;12.13;;;;;;;5.27;58.36;99790.41;5050471;28;20209;-53
2023/01/30 08:14:54;;;;;;;19.53;13.33;;;;;;;5.29;59.31;99787.94;5042671;28;20561;-52
2023/01/30 08:17:23;;;;;;;22.07;12.93;;;;;;;5.44;58.64;99787.69;5045682;28;20203;-53
2023/01/30 08:19:50;;;;;;;18.43;12.80;;;;;;;5.37;58.42;99786.56;5047537;28;20202;-54
2023/01/30 08:22:16;;;;;;;17.90;12.50;;;;;;;5.41;58.26;99778.25;5053380;28;20206;-53
2023/01/30 08:24:43;;;;;;;17.90;12.73;;;;;;;5.44;57.64;99780.91;5053422;28;20194;-53
2023/01/30 08:27:10;;;;;;;15.10;12.23;;;;;;;5.53;58.35;99785.50;5053122;28;20228;-53
2023/01/30 08:29:38;;;;;;;21.47;12.47;;;;;;;5.47;58.27;99781.03;5046767;28;20258;-53
2023/01/30 08:32:05;;;;;;;18.07;12.27;;;;;;;5.41;56.28;99782.47;5053211;28;20237;-52
2023/01/30 08:34:32;;;;;;;16.83;12.17;;;;;;;5.33;57.70;99783.00;5051933;28;20569;-54
2023/01/30 08:36:59;;;;;;;17.83;12.63;;;;;;;5.35;57.71;99772.91;5046881;28;20232;-53
2023/01/30 08:39:25;;;;;;;19.63;12.83;;;;;;;5.43;57.73;99773.22;5032913;28;20201;-53
2023/01/30 08:41:52;;;;;;;18.30;12.00;;;;;;;5.34;57.88;99760.97;5033394;28;20193;-53
2023/01/30 08:44:19;;;;;;;19.10;13.00;;;;;;;5.29;57.84;99760.78;5033072;28;20200;-53
2023/01/30 08:46:47;;;;;;;22.57;13.30;;;;;;;5.42;57.12;99766.34;5046221;28;20251;-53
2023/01/30 08:49:14;;;;;;;19.33;12.90;;;;;;;5.38;57.53;99767.06;5045024;28;20202;-53
2023/01/30 08:51:41;;;;;;;21.20;13.90;;;;;;;5.45;57.54;99777.56;5031730;28;20190;-53
2023/01/30 08:54:08;;;;;;;18.13;12.40;;;;;;;5.48;57.01;99769.16;5032527;28;20198;-53
2023/01/30 08:56:34;;;;;;;20.03;13.33;;;;;;;5.51;57.37;99776.94;5047137;28;20662;-54
2023/01/30 08:59:01;;;;;;;16.10;11.60;;;;;;;5.51;56.72;99761.66;5052868;28;20261;-53
2023/01/30 09:01:28;;;;;;;20.20;12.90;;;;;;;5.57;57.29;99762.78;5052441;28;20197;-53
2023/01/30 09:03:57;;;;;;;20.07;12.73;;;;;;;5.51;56.08;99766.75;5052348;28;20570;-53
2023/01/30 09:06:24;;;;;;;16.53;11.23;;;;;;;5.51;56.52;99756.56;5052327;28;20196;-53
2023/01/30 09:08:50;;;;;;;16.33;10.83;;;;;;;5.43;55.75;99760.47;5052758;28;20222;-53
2023/01/30 09:11:17;;;;;;;19.00;14.18;;;;;;;5.49;56.83;99756.50;5043637;28;20486;-52
2023/01/30 09:13:44;;;;;;;17.00;11.50;;;;;;;5.06;55.73;99664.72;5036996;28;20287;-54
2023/01/30 09:16:12;;;;;;;16.13;10.13;;;;;;;5.55;56.04;99738.88;5032691;28;20198;-53
2023/01/30 09:18:40;;;;;;;19.30;11.50;;;;;;;5.64;56.18;99751.13;5032290;28;20257;-51
2023/01/30 09:21:09;;;;;;;19.10;11.67;;;;;;;5.67;56.00;99751.25;5032640;28;20275;-53
2023/01/30 09:23:37;;;;;;;16.93;11.10;;;;;;;5.51;55.98;99716.66;5032255;28;20205;-52
2023/01/30 09:26:04;;;;;;;23.10;12.00;;;;;;;5.71;56.37;99733.56;5046230;28;20197;-53
2023/01/30 09:28:31;;;;;;;18.20;12.00;;;;;;;5.69;56.19;99745.41;5052044;28;20222;-51
2023/01/30 09:30:58;;;;;;;17.87;11.73;;;;;;;5.65;55.83;99735.03;5051986;28;20755;-53
2023/01/30 09:33:25;;;;;;;16.60;10.37;;;;;;;5.58;55.18;99728.81;5051864;28;20201;-52
2023/01/30 09:35:52;;;;;;;14.10;10.17;;;;;;;5.48;55.91;99716.53;5052216;28;20275;-54
2023/01/30 09:38:21;;;;;;;14.33;11.17;;;;;;;5.50;56.24;99720.00;5051890;28;20653;-52
2023/01/30 09:40:59;;;;;;;17.83;11.57;;;;;;;5.60;56.22;99705.97;5051846;28;20191;-52
2023/01/30 09:43:38;;;;;;;24.23;11.53;;;;;;;5.70;56.51;99710.59;5042174;28;20194;-53
2023/01/30 09:46:18;;;;;;;20.67;11.80;;;;;;;5.72;56.41;99702.19;5032324;28;20193;-54
2023/01/30 09:48:55;;;;;;;15.90;10.97;;;;;;;5.74;56.81;99697.16;5031707;28;20235;-53
2023/01/30 09:51:41;;;;;;;17.40;12.27;;;;;;;5.74;56.84;99692.91;5031971;28;20196;-54
2023/01/30 09:54:19;;;;;;;18.73;12.03;;;;;;;5.84;56.47;99691.59;5031837;28;20194;-52
2023/01/30 09:56:46;;;;;;;19.00;12.20;;;;;;;5.78;56.68;99699.88;5032064;28;20196;-53
2023/01/30 09:59:23;;;;;;;18.93;11.73;;;;;;;5.74;56.95;99689.53;5031563;28;20194;-53
2023/01/30 10:01:58;;;;;;;18.60;11.33;;;;;;;5.80;56.47;99685.50;5031679;28;20559;-53
2023/01/30 10:04:33;;;;;;;18.33;12.07;;;;;;;5.78;56.71;99671.84;5031930;28;20193;-54
2023/01/30 10:07:08;;;;;;;18.13;11.50;;;;;;;5.85;56.43;99670.44;5035855;28;20533;-53
2023/01/30 10:09:43;;;;;;;13.97;10.83;;;;;;;5.90;55.67;99661.28;5043873;28;20196;-54
2023/01/30 10:12:35;;;;;;;17.60;10.63;;;;;;;5.86;55.47;99650.09;5051582;28;20190;-51
2023/01/30 10:15:21;;;;;;;19.53;11.80;;;;;;;5.92;55.63;99652.88;5052180;28;20195;-54
2023/01/30 10:18:04;;;;;;;17.13;11.17;;;;;;;5.98;55.17;99652.22;5051470;28;20202;-53
2023/01/30 10:20:51;;;;;;;15.80;10.60;;;;;;;6.07;55.13;99641.50;5051421;28;20191;-52
2023/01/30 10:23:32;;;;;;;17.07;10.73;;;;;;;6.20;54.92;99636.88;5051920;28;20276;-53
2023/01/30 10:26:06;;;;;;;16.33;11.70;;;;;;;6.29;54.67;99629.53;5039375;28;20210;-53
2023/01/30 10:28:38;;;;;;;15.30;10.67;;;;;;;6.22;53.67;99630.16;5032844;28;20557;-53
2023/01/30 10:31:10;;;;;;;16.40;10.73;;;;;;;6.22;53.94;99622.50;5032494;28;20191;-53
2023/01/30 10:33:43;;;;;;;15.20;10.83;;;;;;;6.15;54.21;99615.44;5031252;28;20195;-53
2023/01/30 10:36:14;;;;;;;19.60;11.73;;;;;;;6.25;54.37;99599.63;5030812;28;20752;-53
2023/01/30 10:38:47;;;;;;;22.73;12.70;;;;;;;6.43;53.75;99600.25;5031225;28;20644;-53
2023/01/30 10:41:24;;;;;;;18.20;11.03;;;;;;;6.48;52.94;99596.19;5031765;28;20198;-53
2023/01/30 10:43:59;;;;;;;16.53;11.53;;;;;;;6.40;52.92;99595.03;5030845;28;20663;-53
2023/01/30 10:46:51;;;;;;;17.70;10.80;;;;;;;6.36;53.60;99590.66;5031000;28;20232;-54
2023/01/30 10:49:23;;;;;;;19.37;11.97;;;;;;;6.33;54.26;99582.91;5030860;28;20733;-53
2023/01/30 10:51:58;;;;;;;17.10;11.07;;;;;;;6.07;53.57;99535.22;5031186;28;20246;-53
2023/01/30 10:54:34;;;;;;;18.13;11.50;;;;;;;6.03;54.15;99570.78;5030840;28;20660;-55
2023/01/30 10:57:13;;;;;;;19.97;13.07;;;;;;;6.17;54.09;99567.03;5031470;28;20195;-54
2023/01/30 10:59:50;;;;;;;18.97;12.00;;;;;;;6.05;53.83;99549.59;5031134;28;20195;-55
2023/01/30 11:02:24;;;;;;;18.80;11.90;;;;;;;6.10;54.82;99555.72;5031032;28;20199;-53
2023/01/30 11:04:59;;;;;;;17.93;11.77;;;;;;;6.16;54.12;99550.84;5031220;28;20206;-53
2023/01/30 11:07:30;;;;;;;22.37;11.97;;;;;;;5.99;54.16;99492.44;5031382;28;20293;-53
2023/01/30 11:09:58;;;;;;;15.20;11.27;;;;;;;6.33;53.49;99529.31;5030561;28;20734;-53
2023/01/30 11:12:26;;;;;;;15.90;11.50;;;;;;;6.33;53.68;99526.78;5031133;28;20222;-54
2023/01/30 11:14:57;;;;;;;18.67;11.87;;;;;;;6.28;53.29;99522.34;5032479;28;20564;-51
2023/01/30 11:17:30;;;;;;;15.47;10.80;;;;;;;6.38;53.04;99519.25;5034708;28;20574;-52
2023/01/30 11:20:13;;;;;;;20.17;11.00;;;;;;;6.58;53.21;99510.59;5035002;28;20278;-52
2023/01/30 11:22:46;;;;;;;17.90;12.47;;;;;;;6.66;52.74;99513.38;5034431;28;20206;-52
2023/01/30 11:25:16;;;;;;;17.90;12.20;;;;;;;6.78;51.90;99499.31;5034239;28;20188;-53
2023/01/30 11:27:51;;;;;;;17.70;11.63;;;;;;;6.81;51.42;99499.38;5033881;28;20346;-53
2023/01/30 11:30:20;;;;;;;18.03;12.23;;;;;;;6.69;52.21;99490.50;5045284;28;20260;-53
2023/01/30 11:32:51;;;;;;;20.90;12.03;;;;;;;6.75;51.99;99488.13;5034105;28;20613;-54
2023/01/30 11:35:27;;;;;;;20.73;11.93;;;;;;;6.69;52.27;99486.25;5034586;28;20209;-53
2023/01/30 11:37:54;;;;;;;18.90;12.43;;;;;;;6.70;52.09;99480.34;5034396;28;20199;-54
2023/01/30 11:40:28;;;;;;;21.00;12.87;;;;;;;6.68;52.26;99470.88;5035038;28;20215;-53
2023/01/30 11:43:04;;;;;;;19.40;12.20;;;;;;;6.79;52.38;99465.28;5052917;28;20229;-54